Weather reports worldwide

Advertisment
Bourg-St-Maurice, France (7497): temperature & dewpoint: 20.05.2019 20:00:00 - 26.05.2019 20:00:00 (CEST)Bourg-St-Maurice, France (7497): temperature -20cm & temperature -100cm: 20.05.2019 20:00:00 - 26.05.2019 20:00:00 (CEST)Bourg-St-Maurice, France (7497): wind speed & gusts: 20.05.2019 20:00:00 - 26.05.2019 20:00:00 (CEST)Bourg-St-Maurice, France (7497): wind direction: 20.05.2019 20:00:00 - 26.05.2019 20:00:00 (CEST)Bourg-St-Maurice, France (7497): sunshine duration: 20.05.2019 20:00:00 - 26.05.2019 20:00:00 (CEST)Bourg-St-Maurice, France (7497): precipitation: 20.05.2019 20:00:00 - 26.05.2019 20:00:00 (CEST)
Date & Time tt [°C] td [°C] tt -20cm [°C] tt -100cm [°C] ff [km/h] ff [kn] fx [km/h] fx [kn] dd sd [min] rr [mm]
26.05.2019 20:00:00 16,9 8,8 18,9 14,1 4 2 13 7 S 0 0,0
26.05.2019 19:00:00 17,5 8,1 18,8 14,0 4 2 14 8 SSW 0 0,0
26.05.2019 18:00:00 17,6 8,4 18,6 14,0 5 3 21 12 SSE 20 0,0
26.05.2019 17:00:00 20,7 7,7 18,3 14,0 10 6 23 12 SSW 32 0,0
26.05.2019 16:00:00 19,8 7,2 18,1 14,0 7 4 20 11 S 30 0,0
26.05.2019 15:00:00 19,0 7,4 17,8 14,0 8 4 22 12 S 29 0,0
26.05.2019 14:00:00 18,9 6,7 17,6 14,0 9 5 20 11 S 43 0,0
26.05.2019 13:00:00 17,6 6,5 17,3 14,0 8 4 19 10 S 7 0,0
26.05.2019 12:00:00 17,6 7,0 17,1 14,0 7 4 18 10 SSW 56 0,0
26.05.2019 11:00:00 15,4 7,2 17,1 13,9 7 4 15 8 S 60 0,0
26.05.2019 10:00:00 13,9 8,5 17,1 13,9 6 3 13 7 SSE 21 0,0
26.05.2019 09:00:00 12,1 8,8 17,2 13,9 4 2 12 7 SSW 13 0,0
26.05.2019 08:00:00 10,9 9,3 17,3 13,9 6 3 15 8 SW 24 0,0
26.05.2019 07:00:00 10,5 9,4 17,4 13,9 5 3 12 7 SW 5 0,0
26.05.2019 06:00:00 10,5 9,6 17,5 13,9 3 1 6 3 S 0 0,0
26.05.2019 05:00:00 10,7 9,6 17,6 13,9 2 1 4 2 SW 0 0,0
26.05.2019 04:00:00 10,9 9,8 17,8 13,9 0 0 5 3 N 0 0,0
26.05.2019 03:00:00 11,0 9,7 17,9 13,9 3 1 6 3 SW 0 0,0
26.05.2019 02:00:00 11,0 9,7 18,0 13,8 0 0 10 6 N 0 0,0
26.05.2019 01:00:00 11,3 9,9 18,1 13,8 4 2 10 5 SSW 0 0,0
26.05.2019 00:00:00 11,8 10,0 18,2 13,8 3 1 8 4 SSW 0 0,0
25.05.2019 23:00:00 12,0 9,9 18,3 13,8 0 0 11 6 N 0 0,0
25.05.2019 22:00:00 12,3 10,5 18,3 13,8 4 2 19 10 W 0 0,0
25.05.2019 21:00:00 12,9 10,3 18,4 13,8 4 2 18 10 WSW 0 0,2
25.05.2019 20:00:00 15,1 9,9 18,4 13,8 4 2 9 5 SW 0 0,0
25.05.2019 19:00:00 15,5 10,0 18,4 13,8 3 2 8 5 NNW 1 0,0
25.05.2019 18:00:00 15,1 9,9 18,4 13,8 4 2 19 10 N 0 0,0
25.05.2019 17:00:00 15,0 10,4 18,3 13,7 11 6 18 10 NNW 0 0,0
25.05.2019 16:00:00 17,1 8,5 18,2 13,7 9 5 22 12 SW 0 0,0
25.05.2019 15:00:00 17,5 11,1 18,0 13,7 5 3 16 9 E 0 0,0
25.05.2019 14:00:00 19,0 8,3 17,7 13,7 8 4 26 14 S 21 0,0
25.05.2019 13:00:00 18,8 9,3 17,5 13,6 10 5 23 13 S 38 0,0
25.05.2019 12:00:00 17,9 8,5 17,4 13,7 9 5 18 10 SSW 17 0,0
25.05.2019 11:00:00 16,1 8,3 17,4 13,6 7 4 17 9 SSW 27 0,0
25.05.2019 10:00:00 14,7 7,7 17,4 13,6 3 2 7 4 S 9 0,0
25.05.2019 09:00:00 12,4 8,9 17,5 13,6 0 0 7 4 N 0 0,0
25.05.2019 08:00:00 11,7 8,2 17,7 13,6 0 0 5 3 N 0 0,0
25.05.2019 07:00:00 11,1 7,0 17,9 13,6 2 1 4 2 NNE 0 0,0
25.05.2019 06:00:00 10,6 6,7 18,0 13,6 3 2 5 3 NNW 0 0,0
25.05.2019 05:00:00 10,2 6,2 18,2 13,6 3 1 4 2 N 0 0,0
25.05.2019 04:00:00 11,1 6,0 18,4 13,6 2 1 8 4 N 0 0,0
25.05.2019 03:00:00 11,3 6,2 18,5 13,6 3 2 5 3 N 0 0,0
25.05.2019 02:00:00 11,7 6,2 18,7 13,5 2 1 5 3 NNW 0 -
25.05.2019 01:00:00 12,7 6,3 18,8 13,5 3 2 9 5 N 0 0,0
25.05.2019 00:00:00 14,2 5,8 19,0 13,5 4 2 13 7 NNW 0 0,0
24.05.2019 23:00:00 15,3 5,2 19,0 13,5 9 5 15 8 WNW 0 0,0
24.05.2019 22:00:00 16,7 4,7 19,1 13,5 8 4 16 9 WNW 0 0,0
24.05.2019 21:00:00 18,5 6,0 19,1 13,5 3 2 27 15 SSE 0 0,0
24.05.2019 20:00:00 20,0 4,5 19,0 13,5 3 1 18 10 W 27 0,0
24.05.2019 19:00:00 22,7 2,7 18,9 13,5 5 3 24 13 W 60 0,0
24.05.2019 18:00:00 22,9 2,4 18,7 13,4 10 5 35 19 NNW 60 0,0
24.05.2019 17:00:00 23,2 2,6 18,3 13,4 13 7 25 14 NNW 31 0,0
24.05.2019 16:00:00 23,7 1,3 17,9 13,4 8 5 26 14 N 56 0,0
24.05.2019 15:00:00 23,9 1,5 17,5 13,4 5 3 18 10 ESE 60 0,0
24.05.2019 14:00:00 23,2 2,1 17,1 13,4 6 3 18 10 SSW 58 0,0
24.05.2019 13:00:00 22,1 2,7 16,8 13,4 8 4 15 8 SSE 60 0,0
24.05.2019 12:00:00 21,1 2,8 16,5 13,4 4 2 13 7 S 60 0,0
24.05.2019 11:00:00 18,4 4,5 16,5 13,4 5 3 11 6 SSW 60 0,0
24.05.2019 10:00:00 16,0 4,1 16,5 13,3 4 2 8 4 SE 55 0,0
24.05.2019 09:00:00 13,2 4,3 16,6 13,3 2 1 6 3 S 39 0,0
24.05.2019 08:00:00 12,0 5,2 16,8 13,3 3 2 7 4 NE 60 0,0
24.05.2019 07:00:00 8,5 5,1 17,0 13,3 5 3 8 5 NNW 3 0,0
24.05.2019 06:00:00 7,9 5,2 17,1 13,3 3 2 7 4 N 0 0,0
24.05.2019 05:00:00 8,3 5,2 17,3 13,3 4 2 6 3 NNW 0 0,0
24.05.2019 04:00:00 9,0 5,4 17,5 13,3 2 1 6 4 N 0 0,0
24.05.2019 03:00:00 9,4 5,2 17,7 13,3 4 2 7 4 N 0 0,0
24.05.2019 02:00:00 10,3 5,5 17,9 13,3 0 0 5 3 N 0 0,0
24.05.2019 01:00:00 11,0 5,7 18,1 13,3 0 0 8 4 N 0 0,0
24.05.2019 00:00:00 12,2 5,8 18,2 13,3 3 2 6 4 N 0 0,0
23.05.2019 23:00:00 13,8 5,4 18,3 13,3 3 1 14 7 NW 0 0,0
23.05.2019 22:00:00 15,5 3,9 18,4 13,3 6 4 24 13 NW 0 0,0
23.05.2019 21:00:00 16,6 4,0 18,4 13,3 5 3 16 9 WNW 0 0,0
23.05.2019 20:00:00 18,6 3,6 18,3 13,2 7 4 11 6 WNW 25 0,0
23.05.2019 19:00:00 22,7 2,7 18,1 13,2 4 2 16 9 WSW 60 0,0
23.05.2019 18:00:00 23,1 0,8 17,8 13,3 10 5 22 12 SSW 60 0,0
23.05.2019 17:00:00 23,8 3,1 17,4 13,2 9 5 24 13 S 60 0,0
23.05.2019 16:00:00 23,8 2,6 16,9 13,2 9 5 20 11 SSE 60 0,0
23.05.2019 15:00:00 22,9 0,7 16,4 13,2 5 3 13 7 WNW 60 0,0
23.05.2019 14:00:00 22,9 0,0 15,9 13,2 5 3 15 8 SSW 60 0,0
23.05.2019 13:00:00 21,6 1,8 15,5 13,2 5 3 15 8 SSW 60 0,0
23.05.2019 12:00:00 20,3 2,6 15,2 13,2 5 3 12 6 S 60 0,0
23.05.2019 11:00:00 17,4 2,9 15,2 13,2 5 3 9 5 ESE 60 0,0
23.05.2019 10:00:00 14,9 4,0 15,2 13,1 3 2 8 4 SSE 60 0,0
23.05.2019 09:00:00 12,2 4,2 15,4 13,2 4 2 7 4 ENE 60 0,0
23.05.2019 08:00:00 9,6 4,8 15,5 13,1 4 2 6 3 NNE 60 0,0
23.05.2019 07:00:00 6,1 4,4 15,8 13,2 3 2 6 3 N 3 0,0
23.05.2019 06:00:00 6,7 4,2 16,0 13,1 4 2 10 5 WNW 0 0,0
23.05.2019 05:00:00 6,9 4,6 16,2 13,2 3 1 8 4 N 0 0,0
23.05.2019 04:00:00 7,3 4,8 16,3 13,1 3 1 5 3 N 0 0,0
23.05.2019 03:00:00 8,0 4,9 16,5 13,1 3 1 5 3 N 0 0,0
23.05.2019 02:00:00 8,9 4,9 16,7 13,1 3 2 6 4 N 0 0,0
23.05.2019 01:00:00 9,8 5,4 16,9 13,1 2 1 5 3 N 0 0,0
23.05.2019 00:00:00 11,1 5,2 17,0 13,1 4 2 10 5 N 0 0,0
22.05.2019 23:00:00 12,3 5,0 17,1 13,1 4 2 18 10 W 0 0,0
22.05.2019 22:00:00 14,3 4,6 17,1 13,1 7 4 16 9 W 0 0,0
22.05.2019 21:00:00 15,2 5,1 17,1 13,1 5 3 12 6 W 0 0,0
22.05.2019 20:00:00 16,9 5,8 17,0 13,1 7 4 14 8 WNW 14 0,0
22.05.2019 19:00:00 19,1 4,8 16,9 13,1 4 2 32 18 S 15 0,0
22.05.2019 18:00:00 19,2 3,8 16,7 13,1 7 4 28 15 E 19 0,0
22.05.2019 17:00:00 21,0 4,5 16,5 13,1 7 4 22 12 E 18 0,0
22.05.2019 16:00:00 20,7 2,0 16,2 13,1 4 2 18 10 S 23 0,0
22.05.2019 15:00:00 19,5 2,4 15,8 13,1 3 2 13 7 N 1 0,0
22.05.2019 14:00:00 19,1 4,1 15,3 13,1 6 4 16 8 N 24 0,0
22.05.2019 13:00:00 20,0 4,1 14,8 13,1 5 3 16 9 S 57 0,0
22.05.2019 12:00:00 18,9 4,3 14,6 13,1 8 4 17 9 SSE 60 0,0
22.05.2019 11:00:00 17,0 4,3 14,5 13,1 6 3 13 7 S 60 0,0
22.05.2019 10:00:00 14,4 6,5 14,6 13,1 3 1 8 4 SSW 60 0,0
22.05.2019 09:00:00 11,9 6,4 14,6 13,1 2 1 5 3 SSE 60 0,0
22.05.2019 08:00:00 9,6 7,0 14,8 13,1 2 1 4 2 ESE 41 0,0
22.05.2019 07:00:00 7,1 5,7 15,0 13,0 3 2 6 3 NNE 0 0,0
22.05.2019 06:00:00 6,9 5,5 15,1 13,1 2 1 5 3 NNE 0 0,0
22.05.2019 05:00:00 7,6 5,9 15,3 13,1 2 1 5 3 NNW 0 0,0
22.05.2019 04:00:00 9,1 6,4 15,4 13,1 5 3 8 4 NW 0 0,0
22.05.2019 03:00:00 9,2 7,0 15,5 13,1 0 0 5 3 N 0 0,0
22.05.2019 02:00:00 9,7 7,0 15,6 13,0 0 0 5 3 N 0 0,0
22.05.2019 01:00:00 10,7 7,4 15,7 13,1 2 1 7 4 N 0 0,0
22.05.2019 00:00:00 11,2 7,1 15,9 13,1 0 0 12 7 N 0 0,0
21.05.2019 23:00:00 11,8 6,7 15,9 13,1 5 3 14 8 NW 0 0,0
21.05.2019 22:00:00 12,3 7,0 16,0 13,1 7 4 13 7 NW 0 0,0
21.05.2019 21:00:00 13,7 6,8 16,0 13,1 3 2 17 9 WNW 38 0,0
21.05.2019 20:00:00 15,3 5,5 15,9 13,1 9 5 22 12 WSW 39 0,0
21.05.2019 19:00:00 16,8 6,9 15,7 13,1 5 3 17 9 S 0 0,0
21.05.2019 18:00:00 16,9 6,4 15,5 13,0 5 3 16 9 S 0 0,0
21.05.2019 17:00:00 17,7 6,5 15,3 13,1 5 3 16 9 S 16 0,0
21.05.2019 16:00:00 17,4 6,9 15,1 13,1 9 5 19 10 SSW 10 0,0
21.05.2019 15:00:00 16,6 7,2 14,8 13,0 9 5 20 11 S 5 0,0
21.05.2019 14:00:00 16,4 6,2 14,5 13,1 2 1 12 7 S 10 0,0
21.05.2019 13:00:00 15,0 8,0 14,4 13,1 5 3 11 6 S 0 0,0
21.05.2019 12:00:00 13,8 8,6 14,3 13,0 4 2 9 5 SW 4 0,0
21.05.2019 11:00:00 12,9 8,6 14,2 13,1 2 1 9 5 S 0 0,0
21.05.2019 10:00:00 11,6 8,4 14,2 13,1 6 4 16 9 SSW 10 0,0
21.05.2019 09:00:00 10,6 8,9 14,3 13,1 6 4 14 8 SSW 0 0,0
21.05.2019 08:00:00 9,8 8,7 14,3 13,0 4 2 10 6 SSW 0 0,0
21.05.2019 07:00:00 9,4 8,6 14,4 13,0 4 2 10 5 SSW 0 0,0
21.05.2019 06:00:00 9,3 8,7 14,6 13,1 5 3 14 8 SSW 0 0,0
21.05.2019 05:00:00 9,4 8,5 14,6 13,1 4 2 11 6 SW 0 0,0
21.05.2019 04:00:00 9,4 8,5 14,7 13,1 3 2 11 6 WSW 0 0,0
21.05.2019 03:00:00 9,4 8,6 14,8 13,0 2 1 6 4 SW 0 0,0
21.05.2019 02:00:00 9,5 8,7 14,9 13,1 4 2 13 7 S 0 0,0
21.05.2019 01:00:00 9,6 8,8 15,0 13,0 4 2 9 5 SSW 0 0,0
21.05.2019 00:00:00 9,6 8,7 15,1 13,0 3 2 14 7 WSW 0 0,0
20.05.2019 23:00:00 9,7 8,8 15,2 13,0 6 3 16 9 SSW 0 0,0
20.05.2019 22:00:00 9,9 8,8 15,2 13,0 7 4 12 7 SSW 0 0,2
20.05.2019 21:00:00 10,3 8,7 15,2 13,0 6 3 17 9 SSW 0 0,0
20.05.2019 20:00:00 10,9 8,6 15,2 13,0 7 4 16 9 SW 0 0,0

tt = temperature
td = dewpoint
tt -20cm = temperature -20cm
tt -100cm = temperature -100cm
ff = wind speed
fx = gusts
dd = wind direction
sd = sunshine duration
rr = precipitation

Next stations